sensor_id;sensor_type;location;lat;lon;timestamp;temperature;humidity
21259;DHT22;10787;53.364;-1.480;2022-07-24T00:00:31;18.90;99.90
21259;DHT22;10787;53.364;-1.480;2022-07-24T00:02:57;18.90;99.90
21259;DHT22;10787;53.364;-1.480;2022-07-24T00:05:23;18.90;99.90
21259;DHT22;10787;53.364;-1.480;2022-07-24T00:07:48;18.90;99.90
21259;DHT22;10787;53.364;-1.480;2022-07-24T00:10:14;18.80;99.90
21259;DHT22;10787;53.364;-1.480;2022-07-24T00:12:40;18.80;99.90
21259;DHT22;10787;53.364;-1.480;2022-07-24T00:15:06;18.80;99.90
21259;DHT22;10787;53.364;-1.480;2022-07-24T00:17:32;18.80;99.90
21259;DHT22;10787;53.364;-1.480;2022-07-24T00:19:58;18.80;99.90
21259;DHT22;10787;53.364;-1.480;2022-07-24T00:22:23;18.70;99.90
21259;DHT22;10787;53.364;-1.480;2022-07-24T00:24:50;18.70;99.90
21259;DHT22;10787;53.364;-1.480;2022-07-24T00:27:16;18.70;99.90
21259;DHT22;10787;53.364;-1.480;2022-07-24T00:29:42;18.70;99.90
21259;DHT22;10787;53.364;-1.480;2022-07-24T00:32:08;18.80;99.90
21259;DHT22;10787;53.364;-1.480;2022-07-24T00:34:34;18.70;99.90
21259;DHT22;10787;53.364;-1.480;2022-07-24T00:36:59;18.70;99.90
21259;DHT22;10787;53.364;-1.480;2022-07-24T00:39:25;18.70;99.90
21259;DHT22;10787;53.364;-1.480;2022-07-24T00:41:51;18.70;99.90
21259;DHT22;10787;53.364;-1.480;2022-07-24T00:44:20;18.70;99.90
21259;DHT22;10787;53.364;-1.480;2022-07-24T00:46:47;18.70;99.90
21259;DHT22;10787;53.364;-1.480;2022-07-24T00:49:15;18.70;99.90
21259;DHT22;10787;53.364;-1.480;2022-07-24T00:51:44;18.80;99.90
21259;DHT22;10787;53.364;-1.480;2022-07-24T00:54:12;18.70;99.90
21259;DHT22;10787;53.364;-1.480;2022-07-24T00:56:41;18.80;99.90
21259;DHT22;10787;53.364;-1.480;2022-07-24T00:59:07;18.70;99.90
21259;DHT22;10787;53.364;-1.480;2022-07-24T01:01:34;18.70;99.90
21259;DHT22;10787;53.364;-1.480;2022-07-24T01:04:01;18.70;99.90
21259;DHT22;10787;53.364;-1.480;2022-07-24T01:06:28;18.70;99.90
21259;DHT22;10787;53.364;-1.480;2022-07-24T01:08:54;18.70;99.90
21259;DHT22;10787;53.364;-1.480;2022-07-24T01:11:20;18.70;99.90
21259;DHT22;10787;53.364;-1.480;2022-07-24T01:13:47;18.70;99.90
21259;DHT22;10787;53.364;-1.480;2022-07-24T01:16:13;18.70;99.90
21259;DHT22;10787;53.364;-1.480;2022-07-24T01:18:40;18.70;99.90
21259;DHT22;10787;53.364;-1.480;2022-07-24T01:21:06;18.70;99.90
21259;DHT22;10787;53.364;-1.480;2022-07-24T01:23:33;18.70;99.90
21259;DHT22;10787;53.364;-1.480;2022-07-24T01:25:59;18.70;99.90
21259;DHT22;10787;53.364;-1.480;2022-07-24T01:28:25;18.60;99.90
21259;DHT22;10787;53.364;-1.480;2022-07-24T01:30:51;18.60;99.90
21259;DHT22;10787;53.364;-1.480;2022-07-24T01:33:17;18.70;99.90
21259;DHT22;10787;53.364;-1.480;2022-07-24T01:35:43;18.70;99.90
21259;DHT22;10787;53.364;-1.480;2022-07-24T01:38:10;18.70;99.90
21259;DHT22;10787;53.364;-1.480;2022-07-24T01:40:36;18.70;99.90
21259;DHT22;10787;53.364;-1.480;2022-07-24T01:43:02;18.70;99.90
21259;DHT22;10787;53.364;-1.480;2022-07-24T01:45:28;18.80;99.90
21259;DHT22;10787;53.364;-1.480;2022-07-24T01:47:54;18.80;99.90
21259;DHT22;10787;53.364;-1.480;2022-07-24T01:50:20;18.80;99.90
21259;DHT22;10787;53.364;-1.480;2022-07-24T01:52:46;18.80;99.90
21259;DHT22;10787;53.364;-1.480;2022-07-24T01:55:12;18.80;99.90
21259;DHT22;10787;53.364;-1.480;2022-07-24T01:57:39;18.80;99.90
21259;DHT22;10787;53.364;-1.480;2022-07-24T02:00:06;18.80;99.90
21259;DHT22;10787;53.364;-1.480;2022-07-24T02:02:36;18.80;99.90
21259;DHT22;10787;53.364;-1.480;2022-07-24T02:05:02;18.80;99.90
21259;DHT22;10787;53.364;-1.480;2022-07-24T02:07:28;18.80;99.90
21259;DHT22;10787;53.364;-1.480;2022-07-24T02:09:54;18.80;99.90
21259;DHT22;10787;53.364;-1.480;2022-07-24T02:12:20;18.80;99.90
21259;DHT22;10787;53.364;-1.480;2022-07-24T02:14:46;18.80;99.90
21259;DHT22;10787;53.364;-1.480;2022-07-24T02:17:12;18.80;99.90
21259;DHT22;10787;53.364;-1.480;2022-07-24T02:19:38;18.80;99.90
21259;DHT22;10787;53.364;-1.480;2022-07-24T02:22:03;18.70;99.90
21259;DHT22;10787;53.364;-1.480;2022-07-24T02:24:29;18.60;99.90
21259;DHT22;10787;53.364;-1.480;2022-07-24T02:26:55;18.50;99.90
21259;DHT22;10787;53.364;-1.480;2022-07-24T02:29:21;18.40;99.90
21259;DHT22;10787;53.364;-1.480;2022-07-24T02:31:47;18.30;99.90
21259;DHT22;10787;53.364;-1.480;2022-07-24T02:34:13;18.20;99.90
21259;DHT22;10787;53.364;-1.480;2022-07-24T02:36:39;18.00;99.90
21259;DHT22;10787;53.364;-1.480;2022-07-24T02:39:05;17.90;99.90
21259;DHT22;10787;53.364;-1.480;2022-07-24T02:41:30;17.90;99.90
21259;DHT22;10787;53.364;-1.480;2022-07-24T02:43:56;17.80;99.90
21259;DHT22;10787;53.364;-1.480;2022-07-24T02:46:22;17.70;99.90
21259;DHT22;10787;53.364;-1.480;2022-07-24T02:48:48;17.60;99.90
21259;DHT22;10787;53.364;-1.480;2022-07-24T02:51:14;17.60;99.90
21259;DHT22;10787;53.364;-1.480;2022-07-24T02:53:40;17.40;99.90
21259;DHT22;10787;53.364;-1.480;2022-07-24T02:56:06;17.30;99.90
21259;DHT22;10787;53.364;-1.480;2022-07-24T02:58:32;17.30;99.90
21259;DHT22;10787;53.364;-1.480;2022-07-24T03:00:58;17.20;99.90
21259;DHT22;10787;53.364;-1.480;2022-07-24T03:03:24;17.10;99.90
21259;DHT22;10787;53.364;-1.480;2022-07-24T03:05:50;17.10;99.90
21259;DHT22;10787;53.364;-1.480;2022-07-24T03:08:17;17.00;99.90
21259;DHT22;10787;53.364;-1.480;2022-07-24T03:10:42;17.00;99.90
21259;DHT22;10787;53.364;-1.480;2022-07-24T03:13:11;17.00;99.90
21259;DHT22;10787;53.364;-1.480;2022-07-24T03:15:37;16.90;99.90
21259;DHT22;10787;53.364;-1.480;2022-07-24T03:18:03;16.90;99.90
21259;DHT22;10787;53.364;-1.480;2022-07-24T03:20:30;16.90;99.90
21259;DHT22;10787;53.364;-1.480;2022-07-24T03:22:56;16.90;99.90
21259;DHT22;10787;53.364;-1.480;2022-07-24T03:25:23;16.90;99.90
21259;DHT22;10787;53.364;-1.480;2022-07-24T03:27:49;16.90;99.90
21259;DHT22;10787;53.364;-1.480;2022-07-24T03:30:16;16.90;99.90
21259;DHT22;10787;53.364;-1.480;2022-07-24T03:32:43;16.90;99.90
21259;DHT22;10787;53.364;-1.480;2022-07-24T03:35:09;16.80;99.90
21259;DHT22;10787;53.364;-1.480;2022-07-24T03:37:36;16.90;99.90
21259;DHT22;10787;53.364;-1.480;2022-07-24T03:40:03;16.90;99.90
21259;DHT22;10787;53.364;-1.480;2022-07-24T03:42:31;16.90;99.90
21259;DHT22;10787;53.364;-1.480;2022-07-24T03:44:57;16.90;99.90
21259;DHT22;10787;53.364;-1.480;2022-07-24T03:47:23;16.90;99.90
21259;DHT22;10787;53.364;-1.480;2022-07-24T03:49:48;16.90;99.90
21259;DHT22;10787;53.364;-1.480;2022-07-24T03:52:14;16.90;99.90
21259;DHT22;10787;53.364;-1.480;2022-07-24T03:54:40;16.90;99.90
21259;DHT22;10787;53.364;-1.480;2022-07-24T03:57:06;16.90;99.90
21259;DHT22;10787;53.364;-1.480;2022-07-24T03:59:32;16.90;99.90
21259;DHT22;10787;53.364;-1.480;2022-07-24T04:01:58;16.90;99.90
21259;DHT22;10787;53.364;-1.480;2022-07-24T04:04:24;16.90;99.90
21259;DHT22;10787;53.364;-1.480;2022-07-24T04:06:50;16.90;99.90
21259;DHT22;10787;53.364;-1.480;2022-07-24T04:09:15;17.00;99.90
21259;DHT22;10787;53.364;-1.480;2022-07-24T04:11:42;17.00;99.90
21259;DHT22;10787;53.364;-1.480;2022-07-24T04:14:13;17.00;99.90
21259;DHT22;10787;53.364;-1.480;2022-07-24T04:16:39;17.00;99.90
21259;DHT22;10787;53.364;-1.480;2022-07-24T04:19:05;17.00;99.90
21259;DHT22;10787;53.364;-1.480;2022-07-24T04:21:31;17.00;99.90
21259;DHT22;10787;53.364;-1.480;2022-07-24T04:23:56;17.10;99.90
21259;DHT22;10787;53.364;-1.480;2022-07-24T04:26:22;17.10;99.90
21259;DHT22;10787;53.364;-1.480;2022-07-24T04:28:48;17.10;99.90
21259;DHT22;10787;53.364;-1.480;2022-07-24T04:31:14;17.00;99.90
21259;DHT22;10787;53.364;-1.480;2022-07-24T04:33:40;17.10;99.90
21259;DHT22;10787;53.364;-1.480;2022-07-24T04:36:06;17.10;99.90
21259;DHT22;10787;53.364;-1.480;2022-07-24T04:38:33;17.10;99.90
21259;DHT22;10787;53.364;-1.480;2022-07-24T04:40:59;17.20;99.90
21259;DHT22;10787;53.364;-1.480;2022-07-24T04:43:25;17.20;99.90
21259;DHT22;10787;53.364;-1.480;2022-07-24T04:45:51;17.20;99.90
21259;DHT22;10787;53.364;-1.480;2022-07-24T04:48:17;17.20;99.90
21259;DHT22;10787;53.364;-1.480;2022-07-24T04:50:42;17.20;99.90
21259;DHT22;10787;53.364;-1.480;2022-07-24T04:53:08;17.20;99.90
21259;DHT22;10787;53.364;-1.480;2022-07-24T04:55:34;17.20;99.90
21259;DHT22;10787;53.364;-1.480;2022-07-24T04:58:00;17.20;99.90
21259;DHT22;10787;53.364;-1.480;2022-07-24T05:00:26;17.20;99.90
21259;DHT22;10787;53.364;-1.480;2022-07-24T05:02:51;17.20;99.90
21259;DHT22;10787;53.364;-1.480;2022-07-24T05:05:17;17.20;99.90
21259;DHT22;10787;53.364;-1.480;2022-07-24T05:07:43;17.20;99.90
21259;DHT22;10787;53.364;-1.480;2022-07-24T05:10:09;17.20;99.90
21259;DHT22;10787;53.364;-1.480;2022-07-24T05:12:35;17.20;99.90
21259;DHT22;10787;53.364;-1.480;2022-07-24T05:15:00;17.20;99.90
21259;DHT22;10787;53.364;-1.480;2022-07-24T05:17:26;17.20;99.90
21259;DHT22;10787;53.364;-1.480;2022-07-24T05:19:52;17.20;99.90
21259;DHT22;10787;53.364;-1.480;2022-07-24T05:22:18;17.20;99.90
21259;DHT22;10787;53.364;-1.480;2022-07-24T05:24:44;17.20;99.90
21259;DHT22;10787;53.364;-1.480;2022-07-24T05:27:09;17.20;99.90
21259;DHT22;10787;53.364;-1.480;2022-07-24T05:29:35;17.30;99.90
21259;DHT22;10787;53.364;-1.480;2022-07-24T05:32:01;17.30;99.90
21259;DHT22;10787;53.364;-1.480;2022-07-24T05:34:28;17.30;99.90
21259;DHT22;10787;53.364;-1.480;2022-07-24T05:36:55;17.30;99.90
21259;DHT22;10787;53.364;-1.480;2022-07-24T05:39:21;17.30;99.90
21259;DHT22;10787;53.364;-1.480;2022-07-24T05:41:46;17.40;99.90
21259;DHT22;10787;53.364;-1.480;2022-07-24T05:44:12;17.40;99.90
21259;DHT22;10787;53.364;-1.480;2022-07-24T05:46:38;17.40;99.90
21259;DHT22;10787;53.364;-1.480;2022-07-24T05:49:04;17.50;99.90
21259;DHT22;10787;53.364;-1.480;2022-07-24T05:51:30;17.50;99.90
21259;DHT22;10787;53.364;-1.480;2022-07-24T05:53:56;17.50;99.90
21259;DHT22;10787;53.364;-1.480;2022-07-24T05:56:21;17.60;99.90
21259;DHT22;10787;53.364;-1.480;2022-07-24T05:58:48;17.60;99.90
21259;DHT22;10787;53.364;-1.480;2022-07-24T06:01:14;17.60;99.90
21259;DHT22;10787;53.364;-1.480;2022-07-24T06:03:40;17.70;99.90
21259;DHT22;10787;53.364;-1.480;2022-07-24T06:06:06;17.80;99.90
21259;DHT22;10787;53.364;-1.480;2022-07-24T06:08:32;17.80;99.90
21259;DHT22;10787;53.364;-1.480;2022-07-24T06:10:57;17.90;99.90
21259;DHT22;10787;53.364;-1.480;2022-07-24T06:13:23;18.00;99.90
21259;DHT22;10787;53.364;-1.480;2022-07-24T06:15:49;18.10;99.90
21259;DHT22;10787;53.364;-1.480;2022-07-24T06:18:15;18.10;99.90
21259;DHT22;10787;53.364;-1.480;2022-07-24T06:20:41;18.10;99.90
21259;DHT22;10787;53.364;-1.480;2022-07-24T06:23:08;18.10;99.90
21259;DHT22;10787;53.364;-1.480;2022-07-24T06:25:33;18.00;99.90
21259;DHT22;10787;53.364;-1.480;2022-07-24T06:27:59;18.00;99.90
21259;DHT22;10787;53.364;-1.480;2022-07-24T06:30:27;18.00;99.90
21259;DHT22;10787;53.364;-1.480;2022-07-24T06:32:56;18.00;99.90
21259;DHT22;10787;53.364;-1.480;2022-07-24T06:35:22;18.00;99.90
21259;DHT22;10787;53.364;-1.480;2022-07-24T06:37:48;18.00;99.90
21259;DHT22;10787;53.364;-1.480;2022-07-24T06:40:18;18.10;99.90
21259;DHT22;10787;53.364;-1.480;2022-07-24T06:42:45;18.10;99.90
21259;DHT22;10787;53.364;-1.480;2022-07-24T06:45:11;18.10;99.90
21259;DHT22;10787;53.364;-1.480;2022-07-24T06:47:37;18.00;99.90
21259;DHT22;10787;53.364;-1.480;2022-07-24T06:50:04;18.00;99.90
21259;DHT22;10787;53.364;-1.480;2022-07-24T06:52:30;18.00;99.90
21259;DHT22;10787;53.364;-1.480;2022-07-24T06:54:56;18.10;99.90
21259;DHT22;10787;53.364;-1.480;2022-07-24T06:57:23;18.10;99.90
21259;DHT22;10787;53.364;-1.480;2022-07-24T06:59:51;18.10;99.90
21259;DHT22;10787;53.364;-1.480;2022-07-24T07:02:18;18.20;99.90
21259;DHT22;10787;53.364;-1.480;2022-07-24T07:04:44;18.20;99.90
21259;DHT22;10787;53.364;-1.480;2022-07-24T07:07:10;18.30;99.90
21259;DHT22;10787;53.364;-1.480;2022-07-24T07:09:36;18.30;99.90
21259;DHT22;10787;53.364;-1.480;2022-07-24T07:12:03;18.40;99.90
21259;DHT22;10787;53.364;-1.480;2022-07-24T07:14:29;18.50;99.90
21259;DHT22;10787;53.364;-1.480;2022-07-24T07:16:55;18.60;99.90
21259;DHT22;10787;53.364;-1.480;2022-07-24T07:19:21;18.70;99.90
21259;DHT22;10787;53.364;-1.480;2022-07-24T07:21:46;18.90;99.90
21259;DHT22;10787;53.364;-1.480;2022-07-24T07:24:12;18.90;99.90
21259;DHT22;10787;53.364;-1.480;2022-07-24T07:26:38;19.00;99.90
21259;DHT22;10787;53.364;-1.480;2022-07-24T07:29:04;19.00;99.90
21259;DHT22;10787;53.364;-1.480;2022-07-24T07:31:30;19.10;99.90
21259;DHT22;10787;53.364;-1.480;2022-07-24T07:33:58;19.10;99.90
21259;DHT22;10787;53.364;-1.480;2022-07-24T07:36:24;18.90;99.90
21259;DHT22;10787;53.364;-1.480;2022-07-24T07:38:50;18.90;99.90
21259;DHT22;10787;53.364;-1.480;2022-07-24T07:41:16;18.90;99.90
21259;DHT22;10787;53.364;-1.480;2022-07-24T07:43:45;18.90;99.90
21259;DHT22;10787;53.364;-1.480;2022-07-24T07:46:13;18.80;99.90
21259;DHT22;10787;53.364;-1.480;2022-07-24T07:48:39;19.00;99.90
21259;DHT22;10787;53.364;-1.480;2022-07-24T07:51:05;19.10;99.90
21259;DHT22;10787;53.364;-1.480;2022-07-24T07:53:31;19.30;99.90
21259;DHT22;10787;53.364;-1.480;2022-07-24T07:55:57;19.50;99.90
21259;DHT22;10787;53.364;-1.480;2022-07-24T07:58:23;19.60;99.90
21259;DHT22;10787;53.364;-1.480;2022-07-24T08:00:49;19.70;99.90
21259;DHT22;10787;53.364;-1.480;2022-07-24T08:03:15;19.90;99.90
21259;DHT22;10787;53.364;-1.480;2022-07-24T08:05:41;20.10;99.90
21259;DHT22;10787;53.364;-1.480;2022-07-24T08:08:07;20.20;99.90
21259;DHT22;10787;53.364;-1.480;2022-07-24T08:10:33;20.30;99.90
21259;DHT22;10787;53.364;-1.480;2022-07-24T08:12:59;20.40;99.90
21259;DHT22;10787;53.364;-1.480;2022-07-24T08:15:25;20.50;99.90
21259;DHT22;10787;53.364;-1.480;2022-07-24T08:17:52;20.40;99.90
21259;DHT22;10787;53.364;-1.480;2022-07-24T08:20:19;20.30;99.90
21259;DHT22;10787;53.364;-1.480;2022-07-24T08:22:46;20.10;99.90
21259;DHT22;10787;53.364;-1.480;2022-07-24T08:25:12;20.10;99.90
21259;DHT22;10787;53.364;-1.480;2022-07-24T08:27:39;20.00;99.90
21259;DHT22;10787;53.364;-1.480;2022-07-24T08:30:06;19.90;99.90
21259;DHT22;10787;53.364;-1.480;2022-07-24T08:32:32;19.80;99.90
21259;DHT22;10787;53.364;-1.480;2022-07-24T08:34:58;19.80;99.90
21259;DHT22;10787;53.364;-1.480;2022-07-24T08:37:23;19.80;99.90
21259;DHT22;10787;53.364;-1.480;2022-07-24T08:39:49;19.80;99.90
21259;DHT22;10787;53.364;-1.480;2022-07-24T08:42:15;19.90;99.90
21259;DHT22;10787;53.364;-1.480;2022-07-24T08:44:41;19.90;99.90
21259;DHT22;10787;53.364;-1.480;2022-07-24T08:47:07;20.00;99.90
21259;DHT22;10787;53.364;-1.480;2022-07-24T08:49:36;20.10;99.90
21259;DHT22;10787;53.364;-1.480;2022-07-24T08:52:04;20.10;99.90
21259;DHT22;10787;53.364;-1.480;2022-07-24T08:54:35;20.20;99.90
21259;DHT22;10787;53.364;-1.480;2022-07-24T08:57:05;20.40;99.90
21259;DHT22;10787;53.364;-1.480;2022-07-24T08:59:31;20.60;99.90
21259;DHT22;10787;53.364;-1.480;2022-07-24T09:01:58;20.70;99.90
21259;DHT22;10787;53.364;-1.480;2022-07-24T09:04:57;20.70;99.90
21259;DHT22;10787;53.364;-1.480;2022-07-24T09:07:23;20.60;99.90
21259;DHT22;10787;53.364;-1.480;2022-07-24T09:10:08;20.70;99.90
21259;DHT22;10787;53.364;-1.480;2022-07-24T09:12:37;20.70;99.90
21259;DHT22;10787;53.364;-1.480;2022-07-24T09:15:16;20.70;99.90
21259;DHT22;10787;53.364;-1.480;2022-07-24T09:17:54;20.80;99.90
21259;DHT22;10787;53.364;-1.480;2022-07-24T09:20:22;20.90;99.90
21259;DHT22;10787;53.364;-1.480;2022-07-24T09:22:48;20.90;99.90
21259;DHT22;10787;53.364;-1.480;2022-07-24T09:25:24;20.90;99.90
21259;DHT22;10787;53.364;-1.480;2022-07-24T09:27:51;21.00;99.90
21259;DHT22;10787;53.364;-1.480;2022-07-24T09:30:41;21.20;99.90
21259;DHT22;10787;53.364;-1.480;2022-07-24T09:35:44;21.70;99.90
21259;DHT22;10787;53.364;-1.480;2022-07-24T09:38:14;21.70;99.90
21259;DHT22;10787;53.364;-1.480;2022-07-24T09:40:46;21.80;99.90
21259;DHT22;10787;53.364;-1.480;2022-07-24T09:43:20;21.90;99.90
21259;DHT22;10787;53.364;-1.480;2022-07-24T09:46:02;22.00;99.90
21259;DHT22;10787;53.364;-1.480;2022-07-24T09:51:10;21.80;99.90
21259;DHT22;10787;53.364;-1.480;2022-07-24T09:53:37;21.80;99.90
21259;DHT22;10787;53.364;-1.480;2022-07-24T09:56:08;21.60;99.90
21259;DHT22;10787;53.364;-1.480;2022-07-24T09:58:36;21.70;99.90
21259;DHT22;10787;53.364;-1.480;2022-07-24T10:01:03;21.60;99.90
21259;DHT22;10787;53.364;-1.480;2022-07-24T10:03:33;21.60;99.90
21259;DHT22;10787;53.364;-1.480;2022-07-24T10:06:05;21.60;99.90
21259;DHT22;10787;53.364;-1.480;2022-07-24T10:08:32;21.80;99.90
21259;DHT22;10787;53.364;-1.480;2022-07-24T10:10:59;21.90;99.90
21259;DHT22;10787;53.364;-1.480;2022-07-24T10:13:27;21.90;99.90
21259;DHT22;10787;53.364;-1.480;2022-07-24T10:18:51;22.00;99.90
21259;DHT22;10787;53.364;-1.480;2022-07-24T10:21:23;22.20;99.90
21259;DHT22;10787;53.364;-1.480;2022-07-24T10:26:32;22.50;99.90
21259;DHT22;10787;53.364;-1.480;2022-07-24T10:29:12;22.60;99.90
21259;DHT22;10787;53.364;-1.480;2022-07-24T10:31:46;22.60;99.90
21259;DHT22;10787;53.364;-1.480;2022-07-24T10:34:51;22.90;99.90
21259;DHT22;10787;53.364;-1.480;2022-07-24T10:37:25;23.00;99.90
21259;DHT22;10787;53.364;-1.480;2022-07-24T10:45:29;23.20;99.90
21259;DHT22;10787;53.364;-1.480;2022-07-24T10:47:58;23.00;99.90
21259;DHT22;10787;53.364;-1.480;2022-07-24T10:51:03;22.90;99.90
21259;DHT22;10787;53.364;-1.480;2022-07-24T10:53:52;22.70;99.90
21259;DHT22;10787;53.364;-1.480;2022-07-24T11:01:40;22.60;99.90
21259;DHT22;10787;53.364;-1.480;2022-07-24T11:06:56;22.70;99.90
21259;DHT22;10787;53.364;-1.480;2022-07-24T11:09:24;23.00;99.90
21259;DHT22;10787;53.364;-1.480;2022-07-24T11:20:18;23.40;99.90
21259;DHT22;10787;53.364;-1.480;2022-07-24T11:22:52;23.20;99.90
21259;DHT22;10787;53.364;-1.480;2022-07-24T11:25:27;23.10;99.90
21259;DHT22;10787;53.364;-1.480;2022-07-24T11:30:21;22.60;99.90
21259;DHT22;10787;53.364;-1.480;2022-07-24T11:32:48;21.90;99.90
21259;DHT22;10787;53.364;-1.480;2022-07-24T11:35:14;21.60;99.90
21259;DHT22;10787;53.364;-1.480;2022-07-24T11:37:41;21.40;99.90
21259;DHT22;10787;53.364;-1.480;2022-07-24T11:40:09;21.10;99.90
21259;DHT22;10787;53.364;-1.480;2022-07-24T11:42:38;21.00;99.90
21259;DHT22;10787;53.364;-1.480;2022-07-24T11:45:05;21.10;99.90
21259;DHT22;10787;53.364;-1.480;2022-07-24T11:47:31;21.50;99.90
21259;DHT22;10787;53.364;-1.480;2022-07-24T11:50:02;21.90;99.90
21259;DHT22;10787;53.364;-1.480;2022-07-24T11:52:35;22.30;99.90
21259;DHT22;10787;53.364;-1.480;2022-07-24T11:55:10;22.60;99.90
21259;DHT22;10787;53.364;-1.480;2022-07-24T11:57:38;23.00;99.90
21259;DHT22;10787;53.364;-1.480;2022-07-24T12:00:11;23.30;99.90
21259;DHT22;10787;53.364;-1.480;2022-07-24T12:05:10;23.50;99.90
21259;DHT22;10787;53.364;-1.480;2022-07-24T12:07:36;23.50;99.90
21259;DHT22;10787;53.364;-1.480;2022-07-24T12:10:03;23.40;99.90
21259;DHT22;10787;53.364;-1.480;2022-07-24T12:12:49;23.50;99.90
21259;DHT22;10787;53.364;-1.480;2022-07-24T12:15:16;23.40;99.90
21259;DHT22;10787;53.364;-1.480;2022-07-24T12:18:05;23.50;99.90
21259;DHT22;10787;53.364;-1.480;2022-07-24T12:20:37;23.90;99.90
21259;DHT22;10787;53.364;-1.480;2022-07-24T12:23:06;23.80;99.90
21259;DHT22;10787;53.364;-1.480;2022-07-24T12:25:32;23.80;99.90
21259;DHT22;10787;53.364;-1.480;2022-07-24T12:28:13;23.80;99.90
21259;DHT22;10787;53.364;-1.480;2022-07-24T12:30:42;24.00;99.90
21259;DHT22;10787;53.364;-1.480;2022-07-24T12:36:06;24.30;99.90
21259;DHT22;10787;53.364;-1.480;2022-07-24T12:38:39;24.40;99.90
21259;DHT22;10787;53.364;-1.480;2022-07-24T12:41:11;24.10;99.90
21259;DHT22;10787;53.364;-1.480;2022-07-24T12:46:17;23.50;99.90
21259;DHT22;10787;53.364;-1.480;2022-07-24T12:49:23;23.20;99.90
21259;DHT22;10787;53.364;-1.480;2022-07-24T12:51:55;23.00;99.90
21259;DHT22;10787;53.364;-1.480;2022-07-24T12:54:34;23.00;99.90
21259;DHT22;10787;53.364;-1.480;2022-07-24T12:57:03;23.10;99.90
21259;DHT22;10787;53.364;-1.480;2022-07-24T12:59:39;23.30;99.90
21259;DHT22;10787;53.364;-1.480;2022-07-24T13:02:07;23.60;99.90
21259;DHT22;10787;53.364;-1.480;2022-07-24T13:07:09;23.80;99.90
21259;DHT22;10787;53.364;-1.480;2022-07-24T13:09:36;24.20;99.90
21259;DHT22;10787;53.364;-1.480;2022-07-24T13:12:02;24.30;99.90
21259;DHT22;10787;53.364;-1.480;2022-07-24T13:14:29;24.30;99.90
21259;DHT22;10787;53.364;-1.480;2022-07-24T13:17:17;24.20;99.90
21259;DHT22;10787;53.364;-1.480;2022-07-24T13:19:49;23.90;99.90
21259;DHT22;10787;53.364;-1.480;2022-07-24T13:22:16;23.70;99.90
21259;DHT22;10787;53.364;-1.480;2022-07-24T13:24:42;23.40;99.90
21259;DHT22;10787;53.364;-1.480;2022-07-24T13:27:10;23.20;99.90
21259;DHT22;10787;53.364;-1.480;2022-07-24T13:29:40;22.80;99.90
21259;DHT22;10787;53.364;-1.480;2022-07-24T13:32:05;22.50;99.90
21259;DHT22;10787;53.364;-1.480;2022-07-24T13:34:32;22.00;99.90
21259;DHT22;10787;53.364;-1.480;2022-07-24T13:36:58;21.50;99.90
21259;DHT22;10787;53.364;-1.480;2022-07-24T13:39:24;21.20;99.90
21259;DHT22;10787;53.364;-1.480;2022-07-24T13:41:50;21.00;99.90
21259;DHT22;10787;53.364;-1.480;2022-07-24T13:44:16;21.00;99.90
21259;DHT22;10787;53.364;-1.480;2022-07-24T13:46:42;21.00;99.90
21259;DHT22;10787;53.364;-1.480;2022-07-24T13:49:08;20.90;99.90
21259;DHT22;10787;53.364;-1.480;2022-07-24T13:51:35;20.90;99.90
21259;DHT22;10787;53.364;-1.480;2022-07-24T13:54:01;20.80;99.90
21259;DHT22;10787;53.364;-1.480;2022-07-24T13:56:27;20.70;99.90
21259;DHT22;10787;53.364;-1.480;2022-07-24T13:58:53;20.60;99.90
21259;DHT22;10787;53.364;-1.480;2022-07-24T14:01:20;20.70;99.90
21259;DHT22;10787;53.364;-1.480;2022-07-24T14:03:46;20.70;99.90
21259;DHT22;10787;53.364;-1.480;2022-07-24T14:06:12;20.60;99.90
21259;DHT22;10787;53.364;-1.480;2022-07-24T14:08:39;20.70;99.90
21259;DHT22;10787;53.364;-1.480;2022-07-24T14:11:07;20.70;99.90
21259;DHT22;10787;53.364;-1.480;2022-07-24T14:13:33;20.70;99.90
21259;DHT22;10787;53.364;-1.480;2022-07-24T14:15:59;20.80;99.90
21259;DHT22;10787;53.364;-1.480;2022-07-24T14:18:25;20.90;99.90
21259;DHT22;10787;53.364;-1.480;2022-07-24T14:20:51;21.00;99.90
21259;DHT22;10787;53.364;-1.480;2022-07-24T14:23:18;21.00;99.90
21259;DHT22;10787;53.364;-1.480;2022-07-24T14:25:44;21.00;99.90
21259;DHT22;10787;53.364;-1.480;2022-07-24T14:28:11;21.00;99.90
21259;DHT22;10787;53.364;-1.480;2022-07-24T14:30:38;21.00;99.90
21259;DHT22;10787;53.364;-1.480;2022-07-24T14:33:04;21.10;99.90
21259;DHT22;10787;53.364;-1.480;2022-07-24T14:35:30;21.10;99.90
21259;DHT22;10787;53.364;-1.480;2022-07-24T14:37:57;21.00;99.90
21259;DHT22;10787;53.364;-1.480;2022-07-24T14:40:23;20.90;99.90
21259;DHT22;10787;53.364;-1.480;2022-07-24T14:42:50;20.60;99.90
21259;DHT22;10787;53.364;-1.480;2022-07-24T14:45:16;20.50;99.90
21259;DHT22;10787;53.364;-1.480;2022-07-24T14:47:42;20.30;99.90
21259;DHT22;10787;53.364;-1.480;2022-07-24T14:50:09;20.30;99.90
21259;DHT22;10787;53.364;-1.480;2022-07-24T14:52:35;20.20;99.90
21259;DHT22;10787;53.364;-1.480;2022-07-24T14:55:02;20.20;99.90
21259;DHT22;10787;53.364;-1.480;2022-07-24T14:57:28;20.20;99.90
21259;DHT22;10787;53.364;-1.480;2022-07-24T14:59:54;20.10;99.90
21259;DHT22;10787;53.364;-1.480;2022-07-24T15:02:20;20.10;99.90
21259;DHT22;10787;53.364;-1.480;2022-07-24T15:04:46;20.20;99.90
21259;DHT22;10787;53.364;-1.480;2022-07-24T15:07:12;20.30;99.90
21259;DHT22;10787;53.364;-1.480;2022-07-24T15:09:38;20.40;99.90
21259;DHT22;10787;53.364;-1.480;2022-07-24T15:12:05;20.40;99.90
21259;DHT22;10787;53.364;-1.480;2022-07-24T15:14:31;20.50;99.90
21259;DHT22;10787;53.364;-1.480;2022-07-24T15:16:57;20.60;99.90
21259;DHT22;10787;53.364;-1.480;2022-07-24T15:19:23;20.70;99.90
21259;DHT22;10787;53.364;-1.480;2022-07-24T15:21:49;20.50;99.90
21259;DHT22;10787;53.364;-1.480;2022-07-24T15:24:15;20.50;99.90
21259;DHT22;10787;53.364;-1.480;2022-07-24T15:26:42;20.50;99.90
21259;DHT22;10787;53.364;-1.480;2022-07-24T15:29:08;20.40;99.90
21259;DHT22;10787;53.364;-1.480;2022-07-24T15:31:34;20.40;99.90
21259;DHT22;10787;53.364;-1.480;2022-07-24T15:34:00;20.40;99.90
21259;DHT22;10787;53.364;-1.480;2022-07-24T15:36:26;20.40;99.90
21259;DHT22;10787;53.364;-1.480;2022-07-24T15:38:52;20.30;99.90
21259;DHT22;10787;53.364;-1.480;2022-07-24T15:41:19;20.20;99.90
21259;DHT22;10787;53.364;-1.480;2022-07-24T15:43:45;20.10;99.90
21259;DHT22;10787;53.364;-1.480;2022-07-24T15:46:12;20.00;99.90
21259;DHT22;10787;53.364;-1.480;2022-07-24T15:48:37;19.90;99.90
21259;DHT22;10787;53.364;-1.480;2022-07-24T15:51:03;19.80;99.90
21259;DHT22;10787;53.364;-1.480;2022-07-24T15:53:29;19.90;99.90
21259;DHT22;10787;53.364;-1.480;2022-07-24T15:55:55;19.80;99.90
21259;DHT22;10787;53.364;-1.480;2022-07-24T15:58:21;20.00;99.90
21259;DHT22;10787;53.364;-1.480;2022-07-24T16:00:47;20.20;99.90
21259;DHT22;10787;53.364;-1.480;2022-07-24T16:03:13;20.20;99.90